createdAt,value
2018-08-23T00:01:31.259Z,12.90
2018-08-23T00:06:34.958Z,11.53
2018-08-23T00:11:40.623Z,12.53
2018-08-23T00:16:44.989Z,12.60
2018-08-23T00:21:49.468Z,10.63
2018-08-23T00:26:54.086Z,10.53
2018-08-23T00:32:04.893Z,11.37
2018-08-23T00:37:08.792Z,10.37
2018-08-23T00:42:12.798Z,11.40
2018-08-23T00:47:16.104Z,17.03
2018-08-23T00:52:51.563Z,12.10
2018-08-23T00:57:54.834Z,10.13
2018-08-23T01:02:58.681Z,11.23
2018-08-23T01:08:02.204Z,10.17
2018-08-23T01:13:05.530Z,12.07
2018-08-23T01:18:15.206Z,12.07
2018-08-23T01:23:18.501Z,12.67
2018-08-23T01:28:21.982Z,10.53
2018-08-23T01:33:25.287Z,11.13
2018-08-23T01:38:28.604Z,11.68
2018-08-23T01:43:31.957Z,8.73
2018-08-23T01:48:35.210Z,12.13
2018-08-23T01:53:39.056Z,10.17
2018-08-23T01:58:42.736Z,13.90
2018-08-23T02:03:46.226Z,11.70
2018-08-23T02:08:49.519Z,8.80
2018-08-23T02:13:52.820Z,10.80
2018-08-23T02:18:56.175Z,13.03
2018-08-23T02:23:59.435Z,10.43
2018-08-23T02:29:02.808Z,9.33
2018-08-23T02:34:06.118Z,12.20
2018-08-23T02:39:09.847Z,13.03
2018-08-23T02:44:13.091Z,9.47
2018-08-23T02:49:16.423Z,14.30
2018-08-23T02:54:19.769Z,10.72
2018-08-23T02:59:23.294Z,9.80
2018-08-23T03:04:27.479Z,11.27
2018-08-23T03:09:32.862Z,12.83
2018-08-23T03:14:36.312Z,13.03
2018-08-23T03:19:49.750Z,10.67
2018-08-23T03:24:53.072Z,11.47
2018-08-23T03:29:56.374Z,10.30
2018-08-23T03:35:00.290Z,10.33
2018-08-23T03:40:03.709Z,10.87
2018-08-23T03:45:12.232Z,12.70
2018-08-23T03:50:15.530Z,13.10
2018-08-23T03:55:20.082Z,11.53
2018-08-23T04:00:28.757Z,13.10
2018-08-23T04:05:32.059Z,10.93
2018-08-23T04:10:35.340Z,12.43
2018-08-23T04:15:38.592Z,11.57
2018-08-23T04:20:50.676Z,13.83
2018-08-23T04:25:54.185Z,13.30
2018-08-23T04:30:57.471Z,11.57
2018-08-23T04:36:00.807Z,13.73
2018-08-23T04:41:07.654Z,18.40
2018-08-23T04:46:20.170Z,9.23
2018-08-23T04:51:23.438Z,11.80
2018-08-23T04:56:26.728Z,13.40
2018-08-23T05:01:29.990Z,13.27
2018-08-23T05:06:33.367Z,12.60
2018-08-23T05:11:36.995Z,13.10
2018-08-23T05:16:40.283Z,9.87
2018-08-23T05:21:43.660Z,10.90
2018-08-23T05:26:46.946Z,14.27
2018-08-23T05:31:50.328Z,11.50
2018-08-23T05:36:53.651Z,12.73
2018-08-23T05:41:56.916Z,12.97
2018-08-23T05:47:00.525Z,13.17
2018-08-23T05:52:03.832Z,11.50
2018-08-23T05:57:07.249Z,10.97
2018-08-23T06:02:10.489Z,12.27
2018-08-23T06:07:13.767Z,11.27
2018-08-23T06:12:17.272Z,12.73
2018-08-23T06:17:20.540Z,14.33
2018-08-23T06:22:23.816Z,11.30
2018-08-23T06:27:27.256Z,11.30
2018-08-23T06:32:30.476Z,13.30
2018-08-23T06:37:34.160Z,21.37
2018-08-23T06:42:45.898Z,12.03
2018-08-23T06:47:53.747Z,12.33
2018-08-23T06:52:57.084Z,11.97
2018-08-23T06:58:01.469Z,14.60
2018-08-23T07:03:04.980Z,18.20
2018-08-23T07:08:08.230Z,11.73
2018-08-23T07:13:11.499Z,13.93
2018-08-23T07:18:20.307Z,22.90
2018-08-23T07:23:29.483Z,14.97
2018-08-23T07:28:34.028Z,14.23
2018-08-23T07:33:37.479Z,11.77
2018-08-23T07:38:40.751Z,19.73
2018-08-23T07:43:44.114Z,15.77
2018-08-23T07:48:47.432Z,18.23
2018-08-23T07:53:50.678Z,14.53
2018-08-23T07:58:54.944Z,14.30
2018-08-23T08:03:59.004Z,15.67
2018-08-23T08:09:02.304Z,18.70
2018-08-23T08:14:13.355Z,13.40
2018-08-23T08:19:16.705Z,15.73
2018-08-23T08:24:19.975Z,12.77
2018-08-23T08:29:28.745Z,11.10
2018-08-23T08:34:32.007Z,17.97
2018-08-23T08:39:35.296Z,12.50
2018-08-23T08:44:38.567Z,10.47
2018-08-23T08:49:41.975Z,11.33
2018-08-23T08:54:45.259Z,10.27
2018-08-23T08:59:48.496Z,13.83
2018-08-23T09:04:51.899Z,8.53
2018-08-23T09:09:55.271Z,8.57
2018-08-23T09:14:58.734Z,9.93
2018-08-23T09:20:11.375Z,11.83
2018-08-23T09:25:17.350Z,10.10
2018-08-23T09:30:25.772Z,10.50
2018-08-23T09:35:30.895Z,8.90
2018-08-23T09:40:34.203Z,14.17
2018-08-23T09:45:38.212Z,10.23
2018-08-23T09:50:41.542Z,13.53
2018-08-23T09:55:46.866Z,11.93
2018-08-23T10:00:55.393Z,9.88
2018-08-23T10:08:08.815Z,7.73
2018-08-23T10:13:17.367Z,9.17
2018-08-23T10:18:27.091Z,12.97
2018-08-23T10:23:30.359Z,8.57
2018-08-23T10:28:38.907Z,8.70
2018-08-23T10:33:42.156Z,9.40
2018-08-23T10:38:45.421Z,8.67
2018-08-23T10:43:49.095Z,9.13
2018-08-23T10:48:52.353Z,9.40
2018-08-23T10:53:55.649Z,10.53
2018-08-23T10:58:59.003Z,11.10
2018-08-23T11:04:07.310Z,7.28
2018-08-23T11:09:15.995Z,7.42
2018-08-23T11:14:24.556Z,7.30
2018-08-23T11:19:33.062Z,9.25
2018-08-23T11:24:36.308Z,4.92
2018-08-23T11:29:39.694Z,4.95
2018-08-23T11:34:42.887Z,4.85
2018-08-23T11:39:46.176Z,6.00
2018-08-23T11:44:49.460Z,4.92
2018-08-23T11:49:52.711Z,5.53
2018-08-23T11:54:55.994Z,9.95
2018-08-23T11:59:59.248Z,8.53
2018-08-23T12:05:02.528Z,7.42
2018-08-23T12:10:05.895Z,8.85
2018-08-23T12:15:09.239Z,11.35
2018-08-23T12:20:12.526Z,10.10
2018-08-23T12:25:15.823Z,6.00
2018-08-23T12:30:19.114Z,4.00
2018-08-23T12:35:22.495Z,5.73
2018-08-23T12:40:31.355Z,4.73
2018-08-23T12:45:38.600Z,3.77
2018-08-23T12:50:42.934Z,6.40
2018-08-23T12:55:46.207Z,12.17
2018-08-23T13:00:49.460Z,6.20
2018-08-23T13:05:52.808Z,4.43
2018-08-23T13:10:56.160Z,6.67
2018-08-23T13:15:59.457Z,6.37
2018-08-23T13:21:02.804Z,6.60
2018-08-23T13:26:06.089Z,7.80
2018-08-23T13:31:09.343Z,7.17
2018-08-23T13:36:12.670Z,8.37
2018-08-23T13:41:15.911Z,5.17
2018-08-23T13:46:19.195Z,5.12
2018-08-23T13:51:22.477Z,7.45
2018-08-23T13:56:26.229Z,6.65
2018-08-23T14:01:29.911Z,5.85
2018-08-23T14:06:33.291Z,7.10
2018-08-23T14:11:36.454Z,9.28
2018-08-23T14:16:39.763Z,5.05
2018-08-23T14:21:43.042Z,8.30
2018-08-23T14:26:46.292Z,7.05
2018-08-23T14:31:49.650Z,5.75
2018-08-23T14:36:52.924Z,14.30
2018-08-23T14:41:56.199Z,7.47
2018-08-23T14:47:04.764Z,9.70
2018-08-23T14:52:08.295Z,6.35
2018-08-23T14:57:47.363Z,5.35
2018-08-23T15:02:50.751Z,5.30
2018-08-23T15:07:54.124Z,5.50
2018-08-23T15:12:57.371Z,5.85
2018-08-23T15:18:00.689Z,5.50
2018-08-23T15:23:03.946Z,6.87
2018-08-23T15:28:07.668Z,7.47
2018-08-23T15:33:11.045Z,5.28
2018-08-23T15:38:14.234Z,6.28
2018-08-23T15:43:18.986Z,4.53
2018-08-23T15:48:22.267Z,6.47
2018-08-23T15:53:25.535Z,6.97
2018-08-23T15:58:28.835Z,7.28
2018-08-23T16:03:32.168Z,6.33
2018-08-23T16:08:40.857Z,7.45
2018-08-23T16:13:44.203Z,5.00
2018-08-23T16:18:52.863Z,7.20
2018-08-23T16:23:56.526Z,6.17
2018-08-23T16:28:59.899Z,4.78
2018-08-23T16:34:03.192Z,6.12
2018-08-23T16:39:07.536Z,6.10
2018-08-23T16:44:10.626Z,5.67
2018-08-23T16:49:13.920Z,7.97
2018-08-23T16:54:17.229Z,4.75
2018-08-23T16:59:20.494Z,4.70
2018-08-23T17:04:28.098Z,5.75
2018-08-23T17:09:31.563Z,4.90
2018-08-23T17:14:34.863Z,5.90
2018-08-23T17:19:38.156Z,5.58
2018-08-23T17:24:41.541Z,4.05
2018-08-23T17:29:44.778Z,6.33
2018-08-23T17:34:48.058Z,5.35
2018-08-23T17:39:51.375Z,4.70
2018-08-23T17:44:54.720Z,5.50
2018-08-23T17:49:57.970Z,4.72
2018-08-23T17:55:01.385Z,7.42
2018-08-23T18:00:04.626Z,6.37
2018-08-23T18:05:07.974Z,5.17
2018-08-23T18:10:11.249Z,5.83
2018-08-23T18:15:14.531Z,4.72
2018-08-23T18:20:17.941Z,5.33
2018-08-23T18:25:21.305Z,5.20
2018-08-23T18:30:24.574Z,8.65
2018-08-23T18:35:27.906Z,6.60
2018-08-23T18:40:31.143Z,5.23
2018-08-23T18:45:34.392Z,7.03
2018-08-23T18:50:38.671Z,7.60
2018-08-23T18:55:41.942Z,5.33
2018-08-23T19:00:45.220Z,7.53
2018-08-23T19:05:48.539Z,8.28
2018-08-23T19:10:51.826Z,8.43
2018-08-23T19:16:00.464Z,10.63
2018-08-23T19:21:03.874Z,8.97
2018-08-23T19:26:07.221Z,9.57
2018-08-23T19:31:10.493Z,9.33
2018-08-23T19:36:13.904Z,9.00
2018-08-23T19:41:17.289Z,9.87
2018-08-23T19:46:25.875Z,10.77
2018-08-23T19:51:29.139Z,7.73
2018-08-23T19:56:32.478Z,8.07
2018-08-23T20:01:35.995Z,12.13
2018-08-23T20:06:39.346Z,12.43
2018-08-23T20:11:42.867Z,9.90
2018-08-23T20:16:46.135Z,9.27
2018-08-23T20:21:49.505Z,8.90
2018-08-23T20:26:52.916Z,8.38
2018-08-23T20:31:56.271Z,10.20
2018-08-23T20:36:59.895Z,9.37
2018-08-23T20:42:03.509Z,9.93
2018-08-23T20:47:06.944Z,10.00
2018-08-23T20:52:10.614Z,9.17
2018-08-23T20:57:14.224Z,8.83
2018-08-23T21:02:17.507Z,8.53
2018-08-23T21:07:20.843Z,6.83
2018-08-23T21:12:24.450Z,7.90
2018-08-23T21:17:27.724Z,7.17
2018-08-23T21:22:31.031Z,7.03
2018-08-23T21:27:34.543Z,9.73
2018-08-23T21:32:38.055Z,9.10
2018-08-23T21:37:41.335Z,11.03
2018-08-23T21:42:45.688Z,11.23
2018-08-23T21:47:48.940Z,8.43
2018-08-23T21:52:52.214Z,7.53
2018-08-23T21:57:55.514Z,11.53
2018-08-23T22:02:58.777Z,9.33
2018-08-23T22:08:02.159Z,8.70
2018-08-23T22:13:05.522Z,7.83
2018-08-23T22:18:08.856Z,7.10
2018-08-23T22:23:12.438Z,10.17
2018-08-23T22:28:15.751Z,8.13
2018-08-23T22:33:19.004Z,9.90
2018-08-23T22:38:22.284Z,8.57
2018-08-23T22:43:25.543Z,7.57
2018-08-23T22:48:28.882Z,12.07
2018-08-23T22:53:32.158Z,10.53
2018-08-23T22:58:35.483Z,9.67
2018-08-23T23:03:44.069Z,9.50
2018-08-23T23:08:47.378Z,9.77
2018-08-23T23:13:50.700Z,14.00
2018-08-23T23:18:53.968Z,11.10
2018-08-23T23:23:57.247Z,10.77
2018-08-23T23:29:00.592Z,9.80
2018-08-23T23:34:03.862Z,9.23
2018-08-23T23:39:07.719Z,12.07
2018-08-23T23:44:10.979Z,6.93
2018-08-23T23:49:14.251Z,7.20
2018-08-23T23:54:17.516Z,9.23
2018-08-23T23:59:20.783Z,8.87
